Time;durP1;ratioP1;P1;durP2;ratioP2;P2;SDS_P1;SDS_P2;PMS_P1;PMS_P2;Temp;Humidity;BMP_temperature;BMP_pressure;BME280_temperature;BME280_humidity;BME280_pressure;Samples;Min_cycle;Max_cycle;Signal;HPM_P1;HPM_P2
2021/09/08 05:52:40;;;;;;;10.33;8.10;;;;;;;;;;10679216;27;20496;-86
2021/09/08 05:57:41;;;;;;;16.38;11.20;;;;;;;;;;10644441;27;20035;-86
2021/09/08 06:02:51;;;;;;;17.83;13.18;;;;;;;;;;10644047;27;20027;-84
2021/09/08 06:07:52;;;;;;;9.43;7.77;;;;;;;;;;10645082;27;20138;-84
2021/09/08 06:12:53;;;;;;;8.60;7.55;;;;;;;;;;10651603;27;20649;-86
2021/09/08 06:17:54;;;;;;;15.68;11.98;;;;;;;;;;10644322;27;20031;-85
2021/09/08 06:22:55;;;;;;;11.77;9.13;;;;;;;;;;10646532;27;20123;-85
2021/09/08 06:27:56;;;;;;;12.07;10.10;;;;;;;;;;10643955;27;20038;-85
2021/09/08 06:32:57;;;;;;;13.32;10.02;;;;;;;;;;10644130;27;20035;-85
2021/09/08 06:37:59;;;;;;;14.45;11.55;;;;;;;;;;10643110;27;20472;-85
2021/09/08 06:43:00;;;;;;;15.68;12.27;;;;;;;;;;10643359;27;20465;-87
2021/09/08 06:48:01;;;;;;;18.30;13.32;;;;;;;;;;10641668;27;20084;-85
2021/09/08 06:53:02;;;;;;;17.50;13.25;;;;;;;;;;10642080;27;20027;-85
2021/09/08 06:58:04;;;;;;;19.05;13.63;;;;;;;;;;10642953;27;20023;-85
2021/09/08 07:03:05;;;;;;;16.05;13.63;;;;;;;;;;10624818;27;20177;-84
2021/09/08 07:08:09;;;;;;;17.67;12.68;;;;;;;;;;10615082;27;20054;-84
2021/09/08 07:13:10;;;;;;;13.95;11.10;;;;;;;;;;10619636;27;20047;-84
2021/09/08 07:18:11;;;;;;;14.00;10.50;;;;;;;;;;10614957;27;20063;-83
2021/09/08 07:23:12;;;;;;;13.23;11.15;;;;;;;;;;10614972;27;20030;-85
2021/09/08 07:28:13;;;;;;;13.85;11.00;;;;;;;;;;10612037;27;20369;-85
2021/09/08 07:33:14;;;;;;;12.18;10.85;;;;;;;;;;10616907;27;20058;-86
2021/09/08 07:38:15;;;;;;;12.77;11.43;;;;;;;;;;10614840;27;20019;-86
2021/09/08 07:43:18;;;;;;;12.52;11.23;;;;;;;;;;10613144;27;20076;-86
2021/09/08 07:48:20;;;;;;;15.20;10.98;;;;;;;;;;10615844;27;20031;-86
2021/09/08 07:53:21;;;;;;;12.60;9.90;;;;;;;;;;10637010;27;20027;-85
2021/09/08 08:21:13;;;;;;;12.80;10.75;;;;;;;;;;10473619;28;20029;-87
2021/09/08 08:32:30;;;;;;;12.35;10.02;;;;;;;;;;10337706;28;20038;-84
2021/09/08 08:43:48;;;;;;;14.43;11.07;;;;;;;;;;10406267;28;20026;-86
2021/09/08 08:49:22;;;;;;;13.77;9.90;;;;;;;;;;10328776;28;20603;-86
2021/09/08 09:00:07;;;;;;;14.63;11.27;;;;;;;;;;10458233;28;20041;-86
2021/09/08 12:15:14;;;;;;;10.00;8.00;;;;;;;;;;10387915;28;20410;-85
2021/09/08 13:39:35;;;;;;;7.78;6.97;;;;;;;;;;10391615;28;20030;-87
2021/09/08 13:56:02;;;;;;;10.35;9.35;;;;;;;;;;10379762;22;20047;-87
2021/09/08 14:01:03;;;;;;;7.72;7.03;;;;;;;;;;10323495;28;20352;-84
2021/09/08 14:06:05;;;;;;;8.90;7.47;;;;;;;;;;10311451;28;20031;-86
2021/09/08 14:11:20;;;;;;;8.80;7.15;;;;;;;;;;10293900;28;20034;-86
2021/09/08 14:16:21;;;;;;;8.15;7.45;;;;;;;;;;10287524;28;20062;-85
2021/09/08 14:21:25;;;;;;;10.65;7.72;;;;;;;;;;10290445;28;20027;-85
2021/09/08 14:26:26;;;;;;;7.90;6.70;;;;;;;;;;10288966;28;20059;-86
2021/09/08 14:31:27;;;;;;;8.95;6.47;;;;;;;;;;10286255;28;20027;-85
2021/09/08 14:36:53;;;;;;;8.85;6.03;;;;;;;;;;10349063;22;20077;-87
2021/09/08 14:42:04;;;;;;;8.35;7.30;;;;;;;;;;10329679;28;20120;-86
2021/09/08 14:47:15;;;;;;;6.88;6.18;;;;;;;;;;10347126;28;20049;-86
2021/09/08 15:36:58;;;;;;;8.63;7.07;;;;;;;;;;10521888;22;20044;-87
2021/09/08 15:42:19;;;;;;;8.57;6.20;;;;;;;;;;10512259;28;20460;-88
2021/09/08 15:47:38;;;;;;;8.52;6.45;;;;;;;;;;10503211;28;20044;-87
2021/09/08 15:58:23;;;;;;;10.68;7.47;;;;;;;;;;10509615;28;20017;-88
2021/09/08 16:04:01;;;;;;;11.95;9.25;;;;;;;;;;10517961;28;20051;-87
2021/09/08 16:09:06;;;;;;;8.02;7.22;;;;;;;;;;10501907;28;20409;-85
2021/09/08 16:14:26;;;;;;;;;;;;;;;;;;;;;
2021/09/08 16:19:42;;;;;;;12.32;10.77;;;;;;;;;;10506668;28;20036;-86
2021/09/08 16:25:12;;;;;;;8.45;7.65;;;;;;;;;;10487594;28;20056;-88
2021/09/08 16:30:19;;;;;;;9.57;7.57;;;;;;;;;;10491106;28;20032;-85
2021/09/08 16:35:57;;;;;;;10.82;8.00;;;;;;;;;;10504073;28;20039;-87
2021/09/08 16:41:23;;;;;;;12.15;10.02;;;;;;;;;;10484979;28;20037;-87
2021/09/08 16:46:32;;;;;;;9.68;8.50;;;;;;;;;;10483855;28;20045;-86
2021/09/08 16:52:04;;;;;;;9.68;8.68;;;;;;;;;;10484248;28;20037;-86
2021/09/08 16:57:06;;;;;;;10.80;8.20;;;;;;;;;;10501204;28;20032;-87
2021/09/08 17:02:07;;;;;;;9.95;8.50;;;;;;;;;;10483172;28;20037;-88
2021/09/08 17:07:08;;;;;;;9.98;8.90;;;;;;;;;;10482139;28;20033;-88
2021/09/08 17:12:09;;;;;;;16.25;8.68;;;;;;;;;;10500704;28;20324;-87
2021/09/08 17:17:10;;;;;;;9.25;7.88;;;;;;;;;;10485420;28;20032;-85
2021/09/08 17:22:11;;;;;;;8.95;8.02;;;;;;;;;;10495827;28;20032;-88
2021/09/08 17:27:12;;;;;;;10.80;7.90;;;;;;;;;;10483180;28;20063;-87
2021/09/08 17:32:15;;;;;;;10.07;7.95;;;;;;;;;;10480595;28;20108;-87
2021/09/08 17:37:16;;;;;;;8.77;7.70;;;;;;;;;;10481077;28;20040;-87
2021/09/08 17:42:37;;;;;;;9.48;7.68;;;;;;;;;;10481086;28;20036;-88
2021/09/08 17:47:40;;;;;;;11.80;9.20;;;;;;;;;;10498697;28;20110;-88
2021/09/08 17:52:42;;;;;;;12.85;9.38;;;;;;;;;;10483835;28;20120;-86
2021/09/08 17:57:46;;;;;;;12.15;8.45;;;;;;;;;;10493276;28;20098;-86
2021/09/08 18:02:50;;;;;;;12.38;8.13;;;;;;;;;;10504521;28;20070;-86
2021/09/08 18:07:51;;;;;;;11.32;8.45;;;;;;;;;;10517477;28;20040;-86
2021/09/08 18:13:05;;;;;;;11.65;9.75;;;;;;;;;;10546468;28;20112;-88
2021/09/08 18:18:08;;;;;;;10.63;8.25;;;;;;;;;;10528771;28;20020;-86
2021/09/08 18:23:10;;;;;;;10.75;9.75;;;;;;;;;;10511943;28;20509;-84
2021/09/08 18:28:11;;;;;;;10.95;8.18;;;;;;;;;;10489615;28;20052;-85
2021/09/08 18:33:12;;;;;;;8.27;7.47;;;;;;;;;;10498323;28;20044;-85
2021/09/08 18:38:16;;;;;;;9.80;8.07;;;;;;;;;;10487242;28;20040;-85
2021/09/08 18:43:17;;;;;;;7.93;7.15;;;;;;;;;;10477654;28;20050;-85
2021/09/08 18:48:26;;;;;;;8.25;7.28;;;;;;;;;;10500577;28;20052;-87
2021/09/08 18:53:29;;;;;;;7.88;7.07;;;;;;;;;;10500734;28;20032;-86
2021/09/08 18:58:35;;;;;;;7.75;7.03;;;;;;;;;;10494256;28;20036;-84
2021/09/08 19:03:38;;;;;;;7.53;6.80;;;;;;;;;;10512676;28;20028;-85
2021/09/08 19:08:40;;;;;;;8.93;7.05;;;;;;;;;;10494153;28;20025;-85
2021/09/08 19:13:46;;;;;;;7.78;6.88;;;;;;;;;;10492196;28;20032;-85
2021/09/08 19:18:47;;;;;;;9.27;7.70;;;;;;;;;;10494220;28;20043;-85
2021/09/08 19:23:48;;;;;;;7.80;7.00;;;;;;;;;;10494330;28;20036;-85
2021/09/08 19:28:49;;;;;;;8.50;7.28;;;;;;;;;;10494905;28;20032;-85
2021/09/08 19:33:50;;;;;;;7.70;7.00;;;;;;;;;;10493716;28;20024;-86
2021/09/08 19:39:30;;;;;;;7.40;6.70;;;;;;;;;;10517108;28;20549;-85
2021/09/08 19:44:51;;;;;;;7.95;7.15;;;;;;;;;;10520946;28;20036;-85
2021/09/08 19:49:52;;;;;;;8.57;7.53;;;;;;;;;;10499338;28;20047;-85
2021/09/08 19:54:59;;;;;;;8.73;7.10;;;;;;;;;;10487717;28;20068;-86
2021/09/08 20:00:00;;;;;;;8.38;7.57;;;;;;;;;;10491791;28;20036;-85
2021/09/08 20:05:01;;;;;;;8.23;7.40;;;;;;;;;;10508591;28;20499;-84
2021/09/08 20:10:03;;;;;;;9.10;7.97;;;;;;;;;;10509910;28;20051;-85
2021/09/08 20:15:11;;;;;;;7.88;7.07;;;;;;;;;;10508000;28;20041;-85
